Time;durP1;ratioP1;P1;durP2;ratioP2;P2;SDS_P1;SDS_P2;PMS_P1;PMS_P2;Temp;Humidity;BMP_temperature;BMP_pressure;BME280_temperature;BME280_humidity;BME280_pressure;Samples;Min_cycle;Max_cycle;Signal;HPM_P1;HPM_P2
2022/10/07 00:00:55;;;;;;;3.05;0.73;;;;;;;13.63;81.31;102001.25;4985527;28;20061;-66
2022/10/07 00:03:22;;;;;;;5.47;1.00;;;;;;;13.51;82.23;102004.78;4980368;28;20126;-66
2022/10/07 00:06:02;;;;;;;4.50;0.80;;;;;;;13.68;82.01;101993.69;4989543;28;20045;-67
2022/10/07 00:08:27;;;;;;;1.38;0.73;;;;;;;13.62;81.85;101989.63;4990620;28;20034;-67
2022/10/07 00:10:53;;;;;;;2.67;1.00;;;;;;;13.68;81.71;101988.25;4982081;28;20026;-66
2022/10/07 00:13:18;;;;;;;6.90;1.33;;;;;;;13.61;82.05;101992.69;4980062;28;20510;-66
2022/10/07 00:15:43;;;;;;;3.65;0.70;;;;;;;13.63;81.83;101991.19;4987654;28;20145;-66
2022/10/07 00:18:09;;;;;;;5.80;0.93;;;;;;;13.54;81.86;101985.13;4986025;28;20165;-66
2022/10/07 00:20:38;;;;;;;0.80;0.63;;;;;;;13.61;82.43;101982.63;4989722;28;20038;-66
2022/10/07 00:23:05;;;;;;;1.15;0.90;;;;;;;13.63;81.34;101983.06;4991098;28;20045;-66
2022/10/07 00:25:30;;;;;;;1.42;0.90;;;;;;;13.49;81.91;101979.97;4988108;28;20368;-67
2022/10/07 00:27:58;;;;;;;3.22;0.80;;;;;;;13.56;81.82;101982.88;4980101;28;20034;-67
2022/10/07 00:30:23;;;;;;;5.53;1.00;;;;;;;13.44;82.06;101974.75;4976906;28;20035;-67
2022/10/07 00:32:49;;;;;;;2.17;0.90;;;;;;;13.39;82.62;101980.44;4970511;28;20106;-67
2022/10/07 00:35:14;;;;;;;1.65;0.80;;;;;;;13.28;82.66;101976.59;4986788;28;20057;-67
2022/10/07 00:37:41;;;;;;;3.03;1.27;;;;;;;13.39;82.76;101973.06;4973152;28;20108;-67
2022/10/07 00:40:12;;;;;;;1.70;1.17;;;;;;;13.52;82.20;101973.84;4988531;28;20038;-67
2022/10/07 00:42:40;;;;;;;1.90;1.08;;;;;;;13.51;82.01;101966.88;4982146;28;20034;-67
2022/10/07 00:45:12;;;;;;;3.03;1.13;;;;;;;13.36;82.70;101967.56;4979067;28;20037;-67
2022/10/07 00:47:39;;;;;;;1.77;0.73;;;;;;;13.37;82.47;101972.66;5000398;28;20081;-66
2022/10/07 00:50:18;;;;;;;1.25;0.90;;;;;;;13.46;82.02;101961.69;4972935;28;20035;-66
2022/10/07 00:52:54;;;;;;;4.95;0.85;;;;;;;13.45;82.33;101957.41;4982360;28;20034;-66
2022/10/07 00:55:22;;;;;;;0.95;0.65;;;;;;;13.21;82.85;101946.63;4975870;28;20114;-66
2022/10/07 00:57:51;;;;;;;0.70;0.70;;;;;;;13.27;82.62;101950.66;4977402;28;20974;-66
2022/10/07 01:00:17;;;;;;;1.35;0.98;;;;;;;13.02;82.64;101938.28;4985215;28;20351;-66
2022/10/07 01:02:43;;;;;;;5.03;0.80;;;;;;;12.93;82.94;101941.06;4975810;28;20491;-66
2022/10/07 01:05:13;;;;;;;4.55;0.88;;;;;;;12.91;83.16;101937.16;4984528;28;20050;-65
2022/10/07 01:07:42;;;;;;;3.38;1.13;;;;;;;12.76;83.97;101935.91;4978674;28;20043;-65
2022/10/07 01:10:10;;;;;;;1.60;0.70;;;;;;;12.63;84.70;101935.13;4970336;28;20027;-66
2022/10/07 01:12:54;;;;;;;1.95;0.93;;;;;;;12.69;84.35;101939.19;4989536;28;20037;-66
2022/10/07 01:15:23;;;;;;;1.65;1.10;;;;;;;12.63;84.67;101929.72;4986265;28;20058;-66
2022/10/07 01:18:01;;;;;;;2.92;1.00;;;;;;;12.68;84.48;101924.06;4989877;28;20443;-66
2022/10/07 01:20:52;;;;;;;1.38;1.10;;;;;;;12.54;84.70;101930.94;4978524;28;20034;-66
2022/10/07 01:23:45;;;;;;;1.60;0.98;;;;;;;12.47;85.11;101923.38;4983423;28;20034;-66
2022/10/07 01:26:14;;;;;;;3.40;0.75;;;;;;;12.50;85.32;101925.41;4985484;28;20148;-66
2022/10/07 01:28:51;;;;;;;1.63;0.73;;;;;;;12.50;85.45;101921.94;4988519;28;20018;-66
2022/10/07 01:31:21;;;;;;;2.72;1.25;;;;;;;12.36;85.88;101914.13;4975135;28;20031;-66
2022/10/07 01:34:01;;;;;;;1.00;0.90;;;;;;;12.51;85.69;101912.69;4988380;28;20395;-66
2022/10/07 01:36:27;;;;;;;3.70;0.95;;;;;;;12.55;85.59;101905.47;4996309;28;20042;-66
2022/10/07 01:39:01;;;;;;;0.82;0.70;;;;;;;12.52;85.72;101896.13;4990002;28;20057;-66
2022/10/07 01:41:28;;;;;;;5.18;1.30;;;;;;;12.53;85.71;101895.00;4991140;28;20113;-66
2022/10/07 01:43:57;;;;;;;10.10;1.27;;;;;;;12.60;85.13;101889.81;4986405;28;20034;-66
2022/10/07 01:46:26;;;;;;;2.13;1.65;;;;;;;12.36;85.65;101886.31;5010305;23;20034;-67
2022/10/07 01:48:54;;;;;;;1.45;1.05;;;;;;;12.40;86.25;101890.72;5011154;28;20058;-66
2022/10/07 01:51:27;;;;;;;2.05;1.08;;;;;;;12.43;85.51;101887.34;5011083;28;20068;-67
2022/10/07 01:54:17;;;;;;;1.45;1.08;;;;;;;12.37;85.44;101888.69;5008029;28;20037;-67
2022/10/07 01:57:02;;;;;;;4.97;1.25;;;;;;;12.14;86.50;101876.72;5020198;28;20084;-66
2022/10/07 01:59:57;;;;;;;1.63;1.10;;;;;;;12.12;87.65;101864.66;5015458;28;20085;-67
2022/10/07 02:02:48;;;;;;;2.50;1.05;;;;;;;11.94;88.43;101872.19;5019685;28;20035;-68
2022/10/07 02:05:43;;;;;;;8.68;1.35;;;;;;;11.83;88.28;101862.16;5031806;28;20033;-67
2022/10/07 02:08:37;;;;;;;1.42;1.27;;;;;;;12.02;88.18;101863.19;5017179;28;20694;-67
2022/10/07 02:11:14;;;;;;;6.15;1.35;;;;;;;12.02;88.24;101863.19;5022618;28;20037;-66
2022/10/07 02:14:03;;;;;;;;;;;;;;;12.00;87.81;101861.97;5031680;28;20321;-67
2022/10/07 02:16:40;;;;;;;1.50;1.02;;;;;;;12.07;88.10;101859.50;5028074;28;20345;-67
2022/10/07 02:19:24;;;;;;;1.90;1.08;;;;;;;12.11;88.21;101855.00;5020228;28;20030;-67
2022/10/07 02:21:52;;;;;;;1.00;0.80;;;;;;;12.20;87.68;101851.09;5032586;28;20111;-66
2022/10/07 02:24:21;;;;;;;3.80;1.40;;;;;;;12.23;87.09;101847.69;5028151;28;20089;-67
2022/10/07 02:26:50;;;;;;;1.30;1.10;;;;;;;12.16;87.21;101842.06;5031495;28;20051;-66
2022/10/07 02:29:20;;;;;;;1.60;1.02;;;;;;;12.12;86.99;101838.47;5030466;28;20109;-66
2022/10/07 02:31:48;;;;;;;2.13;1.00;;;;;;;12.10;86.87;101834.53;5024874;28;20030;-67
2022/10/07 02:34:18;;;;;;;3.47;1.38;;;;;;;12.07;87.20;101833.28;5013871;28;20091;-67
2022/10/07 02:36:50;;;;;;;3.05;1.23;;;;;;;12.01;87.26;101823.81;5030475;28;20052;-66
2022/10/07 02:39:16;;;;;;;2.38;1.15;;;;;;;12.01;87.14;101823.03;5029408;28;20057;-66
2022/10/07 02:41:51;;;;;;;2.60;1.15;;;;;;;11.95;87.32;101827.88;5029443;28;21625;-65
2022/10/07 02:44:32;;;;;;;2.00;1.08;;;;;;;11.99;86.77;101831.47;5021693;28;20087;-67
2022/10/07 02:47:15;;;;;;;5.43;1.27;;;;;;;12.00;87.13;101827.63;5028257;28;20091;-66
2022/10/07 02:49:45;;;;;;;3.63;1.02;;;;;;;11.86;86.65;101827.19;5024122;28;20033;-66
2022/10/07 02:52:15;;;;;;;4.17;0.90;;;;;;;11.90;86.88;101821.91;5028459;28;20468;-67
2022/10/07 02:54:46;;;;;;;1.48;0.90;;;;;;;11.92;87.03;101816.94;5030258;28;20288;-67
2022/10/07 02:57:15;;;;;;;2.85;0.95;;;;;;;11.77;86.98;101819.16;5026819;28;20087;-67
2022/10/07 02:59:42;;;;;;;5.82;1.30;;;;;;;11.82;87.26;101809.28;5029029;28;20017;-67
2022/10/07 03:02:14;;;;;;;4.32;1.23;;;;;;;11.63;88.92;101807.84;5028689;28;20037;-66
2022/10/07 03:04:41;;;;;;;2.05;1.35;;;;;;;11.75;88.31;101810.59;5027772;28;20029;-67
2022/10/07 03:07:07;;;;;;;0.95;0.80;;;;;;;11.81;88.09;101797.69;5027488;28;20041;-67
2022/10/07 03:09:34;;;;;;;2.53;1.35;;;;;;;11.82;87.50;101803.88;5029940;28;20061;-67
2022/10/07 03:11:59;;;;;;;1.90;1.48;;;;;;;11.81;88.11;101805.78;5027146;28;20033;-66
2022/10/07 03:14:26;;;;;;;1.95;1.25;;;;;;;11.92;87.95;101796.16;5028935;28;20025;-66
2022/10/07 03:16:52;;;;;;;4.53;1.08;;;;;;;11.83;87.36;101802.78;5024367;28;20474;-66
2022/10/07 03:19:22;;;;;;;7.28;1.27;;;;;;;11.83;87.40;101798.13;5022323;28;20037;-66
2022/10/07 03:21:53;;;;;;;1.00;0.90;;;;;;;11.81;87.36;101800.38;5025383;28;20044;-67
2022/10/07 03:24:19;;;;;;;4.47;1.35;;;;;;;11.74;87.58;101800.16;5029977;28;20041;-67
2022/10/07 03:26:46;;;;;;;2.80;1.40;;;;;;;11.69;87.62;101797.69;5028316;28;20167;-67
2022/10/07 03:29:12;;;;;;;1.63;1.10;;;;;;;11.62;87.67;101794.69;5024920;28;20072;-66
2022/10/07 03:31:41;;;;;;;2.90;1.95;;;;;;;11.64;87.83;101792.44;5023943;28;20057;-67
2022/10/07 03:34:07;;;;;;;3.15;1.70;;;;;;;11.55;88.09;101794.47;5021915;28;20064;-66
2022/10/07 03:36:33;;;;;;;5.15;1.90;;;;;;;11.57;88.47;101786.81;5026273;28;20022;-66
2022/10/07 03:38:59;;;;;;;2.72;1.40;;;;;;;11.60;88.20;101781.53;5030180;28;20029;-67
2022/10/07 03:41:25;;;;;;;1.60;1.20;;;;;;;11.71;87.84;101777.31;5028954;28;20037;-67
2022/10/07 03:43:56;;;;;;;1.55;1.08;;;;;;;11.62;87.49;101782.00;5028152;28;20034;-66
2022/10/07 03:46:22;;;;;;;1.60;1.17;;;;;;;11.62;87.82;101782.00;5032176;28;20087;-67
2022/10/07 03:48:51;;;;;;;4.70;1.48;;;;;;;11.54;88.05;101771.28;5029792;28;20479;-67
2022/10/07 03:51:16;;;;;;;2.03;1.23;;;;;;;11.52;88.34;101768.13;5012330;28;20076;-67
2022/10/07 03:53:45;;;;;;;2.25;1.40;;;;;;;11.51;88.32;101767.34;5029867;28;20059;-67
2022/10/07 03:56:11;;;;;;;1.75;1.13;;;;;;;11.34;88.97;101759.41;5020641;28;20096;-67
2022/10/07 03:58:39;;;;;;;3.08;1.10;;;;;;;11.46;89.13;101759.47;5029448;28;20108;-67
2022/10/07 04:01:12;;;;;;;1.63;1.17;;;;;;;11.49;88.54;101755.31;5020906;28;20033;-65
2022/10/07 04:03:45;;;;;;;2.85;1.00;;;;;;;11.48;88.28;101753.72;5028490;28;20025;-67
2022/10/07 04:06:10;;;;;;;2.53;1.23;;;;;;;11.43;88.45;101749.34;5027410;28;20390;-65
2022/10/07 04:08:37;;;;;;;2.22;1.38;;;;;;;11.43;88.15;101759.34;5029201;28;20504;-67
2022/10/07 04:11:04;;;;;;;2.67;1.30;;;;;;;11.27;87.76;101750.28;5021620;28;20035;-67
2022/10/07 04:13:31;;;;;;;2.47;1.38;;;;;;;11.38;88.33;101759.56;5029576;28;20390;-67
2022/10/07 04:15:57;;;;;;;3.45;1.40;;;;;;;11.49;87.50;101752.63;5016513;28;20035;-66
2022/10/07 04:18:23;;;;;;;1.38;1.02;;;;;;;11.45;86.79;101744.41;5027052;28;20116;-67
2022/10/07 04:20:51;;;;;;;4.32;1.38;;;;;;;11.33;87.53;101748.97;5026625;28;20486;-67
2022/10/07 04:23:16;;;;;;;3.80;1.00;;;;;;;11.38;87.57;101749.53;5029653;28;20087;-67
2022/10/07 04:25:44;;;;;;;1.40;1.00;;;;;;;11.25;88.57;101747.13;5026202;28;20056;-67
2022/10/07 04:28:19;;;;;;;6.25;1.60;;;;;;;11.15;89.30;101752.97;5022988;28;20026;-66
2022/10/07 04:30:52;;;;;;;3.67;1.60;;;;;;;11.11;88.64;101752.03;5027793;28;20417;-66
2022/10/07 04:33:23;;;;;;;2.15;1.50;;;;;;;10.96;89.70;101741.84;5013872;28;20041;-67
2022/10/07 04:35:53;;;;;;;2.13;1.40;;;;;;;10.87;90.54;101750.03;5023734;28;20156;-66
2022/10/07 04:38:19;;;;;;;2.67;1.50;;;;;;;11.02;89.98;101741.31;5025052;28;20516;-66
2022/10/07 04:40:51;;;;;;;5.43;1.48;;;;;;;10.83;90.14;101739.13;5027774;28;20033;-67
2022/10/07 04:43:25;;;;;;;4.05;1.50;;;;;;;11.00;90.44;101740.06;5028958;28;20404;-67
2022/10/07 04:46:07;;;;;;;1.55;1.40;;;;;;;11.06;90.09;101739.56;5017570;28;20033;-67
2022/10/07 04:48:37;;;;;;;1.83;1.42;;;;;;;11.16;89.83;101735.66;5028216;28;20025;-67
2022/10/07 04:51:05;;;;;;;1.85;1.00;;;;;;;11.21;88.48;101732.75;5020177;28;20034;-67
2022/10/07 04:53:35;;;;;;;;;;;;;;;11.09;88.87;101738.09;5025579;28;20034;-67
2022/10/07 04:56:02;;;;;;;2.40;1.15;;;;;;;11.03;88.98;101724.06;5027617;28;19917;-66
2022/10/07 04:58:29;;;;;;;2.42;1.23;;;;;;;11.12;88.52;101723.97;5028255;28;20418;-67
2022/10/07 05:00:56;;;;;;;6.15;1.30;;;;;;;10.96;89.58;101720.28;5013262;28;20599;-66
2022/10/07 05:03:25;;;;;;;5.60;1.58;;;;;;;10.98;89.14;101726.13;5022725;28;20057;-66
2022/10/07 05:05:53;;;;;;;5.28;1.45;;;;;;;11.08;88.97;101721.13;5029001;28;20068;-67
2022/10/07 05:08:23;;;;;;;6.95;1.13;;;;;;;11.15;88.83;101728.69;5029130;28;20120;-67
2022/10/07 05:10:59;;;;;;;4.25;1.42;;;;;;;11.25;89.00;101720.97;5019334;28;20034;-67
2022/10/07 05:13:27;;;;;;;4.07;1.38;;;;;;;11.16;88.67;101711.38;5008568;28;20434;-67
2022/10/07 05:15:56;;;;;;;2.65;1.30;;;;;;;11.13;88.48;101714.75;5018817;28;20489;-67
2022/10/07 05:18:23;;;;;;;4.43;1.83;;;;;;;11.02;88.22;101716.28;5016775;28;20038;-66
2022/10/07 05:20:49;;;;;;;3.63;1.27;;;;;;;11.11;88.80;101717.00;5023837;28;20037;-66
2022/10/07 05:23:18;;;;;;;2.75;1.38;;;;;;;11.07;88.44;101713.38;5032416;28;20397;-66
2022/10/07 05:25:44;;;;;;;2.90;1.02;;;;;;;11.13;88.40;101718.22;5026427;28;20053;-66
2022/10/07 05:28:11;;;;;;;3.50;1.00;;;;;;;11.12;88.18;101716.66;5029324;28;20021;-67
2022/10/07 05:30:38;;;;;;;4.13;1.23;;;;;;;11.13;88.20;101712.84;5035181;28;20374;-66
2022/10/07 05:33:04;;;;;;;1.38;1.23;;;;;;;11.14;88.57;101709.03;5032642;28;20107;-66
2022/10/07 05:35:31;;;;;;;3.28;1.55;;;;;;;11.12;88.08;101715.88;5033038;28;20029;-68
2022/10/07 05:37:56;;;;;;;4.20;1.10;;;;;;;11.07;88.09;101716.84;5029425;28;20428;-67
2022/10/07 05:40:22;;;;;;;5.97;1.00;;;;;;;10.87;88.38;101710.41;5029369;28;20078;-66
2022/10/07 05:42:49;;;;;;;1.90;1.02;;;;;;;10.90;89.00;101709.72;5024656;28;20057;-66
2022/10/07 05:45:14;;;;;;;2.85;1.52;;;;;;;10.88;89.55;101717.34;5030931;28;20064;-66
2022/10/07 05:47:40;;;;;;;2.53;1.20;;;;;;;10.86;89.34;101708.81;5025516;28;20465;-66
2022/10/07 05:50:06;;;;;;;2.97;1.17;;;;;;;10.77;89.51;101701.91;5029621;28;20091;-67
2022/10/07 05:52:34;;;;;;;4.32;1.38;;;;;;;10.75;90.04;101693.38;5030867;28;20041;-66
2022/10/07 05:55:00;;;;;;;1.40;0.95;;;;;;;10.84;90.46;101694.88;5030874;28;20064;-66
2022/10/07 05:57:26;;;;;;;1.70;1.40;;;;;;;11.06;89.74;101703.72;5026479;28;20064;-66
2022/10/07 05:59:52;;;;;;;1.38;0.90;;;;;;;10.98;88.58;101699.97;5030185;28;20106;-66
2022/10/07 06:02:18;;;;;;;1.58;1.35;;;;;;;10.90;89.64;101704.34;5030777;28;20508;-66
2022/10/07 06:04:46;;;;;;;1.65;1.05;;;;;;;10.97;89.00;101703.00;5010228;28;20054;-66
2022/10/07 06:07:12;;;;;;;1.88;1.52;;;;;;;10.95;89.64;101706.03;5030176;28;20499;-66
2022/10/07 06:15:10;;;;;;;0.85;0.77;;;;;;;11.17;88.46;101710.28;5027880;28;20029;-65
2022/10/07 06:17:43;;;;;;;1.55;1.00;;;;;;;11.27;88.51;101704.44;5027136;28;20025;-66
2022/10/07 06:20:12;;;;;;;5.15;1.40;;;;;;;11.17;88.24;101702.19;5026751;28;20502;-66
2022/10/07 06:22:38;;;;;;;1.92;1.17;;;;;;;11.20;88.67;101707.72;5029071;28;20128;-66
2022/10/07 06:25:04;;;;;;;2.70;1.52;;;;;;;11.28;88.20;101697.94;5027642;28;20497;-66
2022/10/07 06:27:31;;;;;;;3.67;1.42;;;;;;;11.23;88.84;101690.84;5030596;28;20446;-66
2022/10/07 06:29:57;;;;;;;7.72;1.33;;;;;;;11.21;89.23;101697.69;5029910;28;20056;-66
2022/10/07 06:32:23;;;;;;;6.82;1.13;;;;;;;11.21;88.17;101697.69;5030335;28;20068;-66
2022/10/07 06:34:49;;;;;;;1.70;0.98;;;;;;;11.11;89.10;101695.44;5027274;28;20056;-66
2022/10/07 06:37:14;;;;;;;2.42;1.30;;;;;;;11.33;88.52;101695.81;5029318;28;20018;-66
2022/10/07 06:39:40;;;;;;;1.80;1.15;;;;;;;11.39;88.33;101693.69;5030926;28;20052;-66
2022/10/07 06:42:06;;;;;;;6.90;1.33;;;;;;;11.55;87.64;101700.03;5029642;28;20056;-67
2022/10/07 06:44:45;;;;;;;1.20;0.90;;;;;;;11.65;87.39;101696.91;5025926;28;20021;-66
2022/10/07 06:47:14;;;;;;;2.97;1.35;;;;;;;11.50;86.99;101698.34;5030289;28;20030;-66
2022/10/07 06:49:42;;;;;;;1.60;1.00;;;;;;;11.50;87.86;101701.03;5029387;28;20032;-66
2022/10/07 06:52:08;;;;;;;4.15;1.10;;;;;;;11.66;86.95;101699.28;5026540;28;20025;-67
2022/10/07 06:54:34;;;;;;;1.88;1.10;;;;;;;11.84;86.94;101697.16;5027095;28;20457;-66
2022/10/07 06:56:59;;;;;;;7.25;1.73;;;;;;;11.91;85.89;101700.09;5027023;28;20052;-65
2022/10/07 06:59:24;;;;;;;2.13;1.00;;;;;;;11.85;86.48;101690.63;5030820;28;20022;-66
2022/10/07 07:01:58;;;;;;;5.53;1.77;;;;;;;11.79;86.18;101689.28;5029035;28;20029;-65
2022/10/07 07:04:24;;;;;;;4.43;1.23;;;;;;;11.91;86.51;101689.28;5027338;28;20025;-66
2022/10/07 07:06:50;;;;;;;1.60;1.08;;;;;;;11.78;86.71;101687.72;5029655;28;20083;-67
2022/10/07 07:09:15;;;;;;;1.48;0.90;;;;;;;11.85;86.04;101687.94;5029100;28;20013;-66
2022/10/07 07:11:44;;;;;;;2.55;1.10;;;;;;;11.66;87.06;101693.09;5026684;28;20029;-66
2022/10/07 07:14:19;;;;;;;2.88;1.15;;;;;;;11.86;86.71;101691.44;5027006;28;20044;-66
2022/10/07 07:16:52;;;;;;;4.63;0.80;;;;;;;12.07;86.98;101687.50;5029300;28;20502;-66
2022/10/07 07:19:18;;;;;;;4.03;1.10;;;;;;;12.33;85.77;101690.59;5025666;28;20517;-67
2022/10/07 07:21:46;;;;;;;4.82;1.27;;;;;;;12.44;85.22;101680.13;5025971;28;20256;-66
2022/10/07 07:24:15;;;;;;;3.17;1.20;;;;;;;12.60;84.75;101689.84;5028293;28;20076;-66
2022/10/07 07:26:41;;;;;;;4.80;1.00;;;;;;;12.69;83.57;101685.13;5013686;28;20041;-66
2022/10/07 07:29:11;;;;;;;3.53;1.38;;;;;;;12.82;83.89;101682.34;5021439;28;20056;-68
2022/10/07 07:31:42;;;;;;;7.20;1.20;;;;;;;13.09;82.76;101676.16;5022160;28;20164;-66
2022/10/07 07:34:12;;;;;;;2.22;1.17;;;;;;;13.39;81.73;101672.72;5021833;28;20120;-66
2022/10/07 07:36:50;;;;;;;0.88;0.50;;;;;;;13.73;81.07;101675.88;5024185;28;20514;-66
2022/10/07 07:39:17;;;;;;;3.60;0.60;;;;;;;14.06;80.28;101679.75;5026565;28;20056;-67
2022/10/07 07:41:49;;;;;;;1.85;0.90;;;;;;;14.21;78.06;101689.78;5028556;28;20033;-66
2022/10/07 07:44:17;;;;;;;2.53;0.98;;;;;;;14.37;77.33;101676.22;5028281;28;20405;-66
2022/10/07 07:46:47;;;;;;;2.70;0.70;;;;;;;14.49;77.32;101676.09;5039462;23;20030;-70
2022/10/07 07:49:14;;;;;;;1.07;0.70;;;;;;;14.64;75.95;101675.22;5011140;28;20042;-70
2022/10/07 07:51:43;;;;;;;3.17;0.40;;;;;;;14.83;75.82;101674.44;5010618;28;20105;-70
2022/10/07 07:54:11;;;;;;;5.05;0.82;;;;;;;15.05;76.02;101679.13;5007829;28;20402;-70
2022/10/07 07:56:40;;;;;;;2.33;0.70;;;;;;;15.15;74.63;101670.41;4994138;28;20037;-70
2022/10/07 07:59:07;;;;;;;5.20;0.73;;;;;;;15.31;74.97;101671.88;4992971;28;20027;-70
2022/10/07 08:01:34;;;;;;;2.97;0.60;;;;;;;15.39;73.81;101670.84;4974842;28;20123;-70
2022/10/07 08:04:01;;;;;;;4.70;0.65;;;;;;;15.20;74.02;101662.75;4993096;28;20023;-69
2022/10/07 08:06:27;;;;;;;2.05;0.50;;;;;;;15.31;73.44;101673.81;4991790;28;20034;-71
2022/10/07 08:08:58;;;;;;;0.98;0.50;;;;;;;15.17;73.84;101659.97;4995198;28;20074;-70
2022/10/07 08:11:24;;;;;;;1.63;0.73;;;;;;;15.34;73.77;101657.59;4987103;28;20049;-71
2022/10/07 08:13:50;;;;;;;1.65;0.63;;;;;;;15.56;72.81;101656.03;4985617;28;20041;-70
2022/10/07 08:16:19;;;;;;;2.33;0.90;;;;;;;15.74;72.37;101653.59;4970072;28;20511;-70
2022/10/07 08:18:48;;;;;;;0.93;0.73;;;;;;;16.06;71.36;101655.66;4983502;28;20113;-70
2022/10/07 08:21:17;;;;;;;1.88;0.77;;;;;;;16.05;71.11;101648.63;4984129;28;20502;-70
2022/10/07 08:23:46;;;;;;;2.05;0.65;;;;;;;16.07;70.18;101651.75;4992415;28;20062;-70
2022/10/07 08:26:13;;;;;;;0.82;0.40;;;;;;;16.41;70.05;101651.81;4986966;28;20133;-69
2022/10/07 08:28:39;;;;;;;1.67;0.45;;;;;;;16.71;69.92;101653.41;4984419;28;20528;-70
2022/10/07 08:31:08;;;;;;;2.17;0.50;;;;;;;16.76;68.08;101644.88;4994802;28;20076;-69
2022/10/07 08:33:38;;;;;;;1.67;0.75;;;;;;;16.96;68.83;101648.22;4986763;28;20066;-70
2022/10/07 08:36:06;;;;;;;1.07;0.60;;;;;;;16.86;67.66;101646.19;4973624;28;20447;-70
2022/10/07 08:38:33;;;;;;;0.43;0.43;;;;;;;17.17;68.80;101651.16;4989908;28;20328;-69
2022/10/07 08:41:15;;;;;;;2.40;0.50;;;;;;;17.50;66.79;101642.91;4991189;28;20034;-70
2022/10/07 08:43:46;;;;;;;2.40;0.60;;;;;;;17.38;66.76;101637.72;4985603;28;20034;-71
2022/10/07 08:46:14;;;;;;;;;;;;;;;17.58;66.64;101641.03;4991922;28;20394;-70
2022/10/07 08:48:43;;;;;;;2.05;0.40;;;;;;;17.71;64.55;101640.34;4987958;28;19949;-69
2022/10/07 08:51:19;;;;;;;3.20;0.50;;;;;;;17.74;65.27;101625.19;4996472;28;20398;-71
2022/10/07 08:53:48;;;;;;;2.75;0.50;;;;;;;18.10;64.82;101624.25;4994977;28;20030;-71
2022/10/07 08:56:17;;;;;;;3.97;0.38;;;;;;;18.12;64.79;101626.59;4991949;28;20145;-71
2022/10/07 08:59:09;;;;;;;1.90;0.77;;;;;;;18.26;64.43;101619.25;4996288;28;20049;-70
2022/10/07 09:01:44;;;;;;;1.35;1.08;;;;;;;18.53;63.16;101614.31;4988014;28;20034;-71
2022/10/07 09:04:29;;;;;;;2.75;0.60;;;;;;;18.55;62.98;101612.78;4988720;28;20042;-71
2022/10/07 09:07:01;;;;;;;3.03;0.30;;;;;;;18.76;61.48;101614.78;4993080;28;20038;-70
2022/10/07 09:09:39;;;;;;;2.92;0.90;;;;;;;19.06;61.13;101601.59;4991161;28;20030;-70
2022/10/07 09:12:14;;;;;;;2.85;0.30;;;;;;;19.45;60.28;101612.56;4986610;28;20039;-71
2022/10/07 09:15:03;;;;;;;1.23;0.40;;;;;;;19.58;59.94;101598.09;5003192;28;20033;-71
2022/10/07 09:17:35;;;;;;;0.30;0.30;;;;;;;19.78;59.00;101596.50;4941199;29;20454;-71
2022/10/07 09:20:06;;;;;;;0.88;0.28;;;;;;;19.76;57.69;101585.16;4935729;29;20111;-71
2022/10/07 09:22:37;;;;;;;1.63;0.32;;;;;;;19.86;57.11;101588.28;4927754;29;20138;-72
2022/10/07 09:25:12;;;;;;;1.92;0.38;;;;;;;19.95;56.39;101588.66;4918412;29;20043;-71
2022/10/07 09:27:38;;;;;;;2.10;0.40;;;;;;;20.12;56.08;101590.53;4915742;29;20043;-72
2022/10/07 09:30:05;;;;;;;2.13;0.28;;;;;;;20.20;56.86;101586.63;4913497;29;20512;-72
2022/10/07 09:32:31;;;;;;;0.32;0.30;;;;;;;20.04;56.38;101578.84;4932862;29;20050;-72
2022/10/07 09:34:56;;;;;;;2.13;0.40;;;;;;;20.02;55.80;101575.72;4919962;29;20520;-72
2022/10/07 09:37:25;;;;;;;4.13;0.35;;;;;;;20.15;56.49;101570.59;4916870;29;20059;-71
2022/10/07 09:40:14;;;;;;;1.67;0.52;;;;;;;20.12;55.53;101563.97;4920076;29;20048;-71
2022/10/07 09:42:44;;;;;;;1.67;0.40;;;;;;;20.03;55.91;101557.38;4929809;29;20048;-71
2022/10/07 09:45:26;;;;;;;0.40;0.20;;;;;;;19.42;56.73;101558.69;4928796;29;20566;-72
2022/10/07 09:47:54;;;;;;;0.77;0.30;;;;;;;19.65;58.10;101554.34;4933070;29;20401;-72
2022/10/07 09:50:39;;;;;;;0.65;0.20;;;;;;;19.75;57.14;101560.97;4928148;29;20051;-72
2022/10/07 09:53:27;;;;;;;2.42;0.40;;;;;;;19.80;57.34;101555.88;4912000;29;20423;-72
2022/10/07 09:55:54;;;;;;;2.63;0.57;;;;;;;19.57;58.45;101547.31;4993123;28;20030;-71
2022/10/07 09:58:24;;;;;;;2.75;0.30;;;;;;;19.70;58.17;101555.91;4992560;28;20042;-72
2022/10/07 10:00:52;;;;;;;2.22;0.57;;;;;;;19.65;58.40;101545.34;4985082;28;20073;-71
2022/10/07 10:03:19;;;;;;;0.75;0.30;;;;;;;19.58;57.18;101540.69;4988107;28;20042;-70
2022/10/07 10:05:53;;;;;;;3.65;0.47;;;;;;;19.87;58.15;101535.94;4988803;28;20037;-70
2022/10/07 10:08:29;;;;;;;2.78;0.25;;;;;;;19.97;57.78;101537.06;4983155;28;20023;-72
2022/10/07 10:11:18;;;;;;;2.50;0.40;;;;;;;19.93;56.54;101536.28;4991890;28;20034;-71
2022/10/07 10:13:46;;;;;;;3.63;0.88;;;;;;;19.95;56.36;101542.16;4989998;28;20669;-72
2022/10/07 10:16:24;;;;;;;0.52;0.20;;;;;;;19.98;55.14;101533.94;4990316;28;20038;-72
2022/10/07 10:18:55;;;;;;;1.13;0.30;;;;;;;19.96;55.30;101530.03;4978505;28;20050;-71
2022/10/07 10:21:21;;;;;;;1.88;0.28;;;;;;;19.97;54.97;101532.38;4976716;28;20062;-71
2022/10/07 10:23:49;;;;;;;1.70;0.40;;;;;;;19.80;55.08;101520.31;4991258;28;20541;-72
2022/10/07 10:26:29;;;;;;;2.03;0.60;;;;;;;19.95;55.48;101523.78;4989845;28;20455;-71
2022/10/07 10:29:16;;;;;;;0.85;0.28;;;;;;;19.84;55.54;101525.00;4983645;28;20045;-71
2022/10/07 10:31:56;;;;;;;1.02;0.30;;;;;;;20.01;54.66;101511.28;4992852;28;20507;-70
2022/10/07 10:34:31;;;;;;;5.55;0.45;;;;;;;20.12;55.28;101517.47;4995867;28;20038;-71
2022/10/07 10:37:33;;;;;;;1.23;0.60;;;;;;;20.26;54.91;101506.47;4987172;28;20038;-70
2022/10/07 10:40:06;;;;;;;0.35;0.20;;;;;;;20.42;54.46;101500.53;4994125;28;20101;-70
2022/10/07 10:43:09;;;;;;;4.03;0.20;;;;;;;20.39;54.63;101495.84;4997225;28;20030;-71
2022/10/07 10:46:12;;;;;;;2.53;0.30;;;;;;;20.13;54.21;101490.91;4982497;28;20041;-71
2022/10/07 10:48:54;;;;;;;0.45;0.20;;;;;;;20.36;54.74;101489.19;4997365;28;20153;-71
2022/10/07 10:52:14;;;;;;;1.27;0.32;;;;;;;20.54;54.37;101481.66;4991689;28;20104;-71
2022/10/07 10:54:56;;;;;;;5.10;0.35;;;;;;;20.58;54.96;101490.63;4964541;28;20062;-71
2022/10/07 10:57:31;;;;;;;4.57;0.90;;;;;;;20.60;54.04;101477.31;4993672;28;20041;-71
2022/10/07 11:00:12;;;;;;;3.63;0.20;;;;;;;20.56;53.82;101476.56;4990326;28;20061;-71
2022/10/07 11:02:39;;;;;;;1.05;0.30;;;;;;;20.55;54.12;101468.75;4982579;28;20030;-71
2022/10/07 11:05:24;;;;;;;1.02;0.10;;;;;;;20.33;55.05;101473.59;4991342;28;20080;-71
2022/10/07 11:07:57;;;;;;;2.47;0.40;;;;;;;20.40;54.37;101456.38;4984130;28;20027;-70
2022/10/07 11:11:16;;;;;;;4.43;0.50;;;;;;;20.34;54.67;101457.97;4985395;28;20037;-70
2022/10/07 11:13:54;;;;;;;3.47;0.30;;;;;;;20.37;55.50;101447.00;4933777;29;20428;-71
2022/10/07 11:16:35;;;;;;;1.10;0.40;;;;;;;20.45;55.70;101442.25;4937634;29;20067;-71
2022/10/07 11:19:05;;;;;;;0.63;0.20;;;;;;;20.39;55.80;101441.88;4926417;29;20047;-70
2022/10/07 11:21:37;;;;;;;1.23;0.32;;;;;;;20.56;56.13;101432.75;4933983;29;20035;-70
2022/10/07 11:24:25;;;;;;;0.52;0.10;;;;;;;20.27;55.48;101425.94;4938662;29;20047;-71
2022/10/07 11:27:09;;;;;;;1.30;0.30;;;;;;;20.15;56.05;101436.56;4919243;29;20079;-71
2022/10/07 11:29:55;;;;;;;0.30;0.20;;;;;;;20.28;56.31;101421.25;4929548;29;20027;-71
2022/10/07 11:32:30;;;;;;;1.52;0.40;;;;;;;20.41;56.19;101419.59;4934317;29;20037;-71
2022/10/07 11:35:13;;;;;;;1.05;0.45;;;;;;;20.49;56.61;101407.41;4934029;29;20111;-71
2022/10/07 11:38:04;;;;;;;3.75;1.52;;;;;;;20.34;56.33;101420.41;4934112;29;20051;-69
2022/10/07 11:40:33;;;;;;;2.55;0.30;;;;;;;20.35;56.50;101416.50;4938727;29;20034;-71
2022/10/07 11:43:15;;;;;;;5.18;0.38;;;;;;;20.33;55.87;101404.41;4920741;29;20040;-70
2022/10/07 11:46:03;;;;;;;0.20;0.20;;;;;;;20.41;56.56;101403.97;4987586;28;20030;-71
2022/10/07 11:48:58;;;;;;;1.08;0.30;;;;;;;20.51;56.55;101405.84;4978632;28;20074;-71
2022/10/07 11:51:29;;;;;;;2.50;0.40;;;;;;;20.86;55.93;101390.25;4972633;28;20053;-71
2022/10/07 11:53:59;;;;;;;3.10;0.43;;;;;;;20.59;55.15;101398.34;4983859;28;20042;-71